Time,TemperatureF,DewpointF,PressureIn,WindDirection,WindDirectionDegrees,WindSpeedMPH,WindSpeedGustMPH,Humidity,HourlyPrecipIn,Conditions,Clouds,dailyrainin,SoftwareType,DateUTC
2013-08-07 00:01:00,69.4,63.0,30.14,North,-999,-999.0,-999.0,80,0.00,,,0.00,meteohub,2013-08-07 04:01:00,
2013-08-07 00:02:00,69.4,63.0,30.14,North,-999,-999.0,-999.0,80,0.00,,,0.00,meteohub,2013-08-07 04:02:00,
2013-08-07 00:05:00,69.6,63.1,30.14,North,-999,-999.0,-999.0,80,0.00,,,0.00,meteohub,2013-08-07 04:05:00,
2013-08-07 00:10:00,69.6,63.1,30.14,North,-999,-999.0,-999.0,80,0.00,,,0.00,meteohub,2013-08-07 04:10:00,
2013-08-07 00:15:00,69.3,62.8,30.14,North,-999,-999.0,-999.0,80,0.00,,,0.00,meteohub,2013-08-07 04:15:00,
2013-08-07 00:20:00,69.3,63.1,30.14,North,-999,-999.0,-999.0,81,0.00,,,0.00,meteohub,2013-08-07 04:20:00,
2013-08-07 00:25:00,69.3,63.1,30.15,North,-999,-999.0,-999.0,81,0.00,,,0.00,meteohub,2013-08-07 04:25:00,
2013-08-07 00:30:00,69.1,63.0,30.15,North,-999,-999.0,-999.0,81,0.00,,,0.00,meteohub,2013-08-07 04:30:00,
2013-08-07 00:35:00,69.1,63.0,30.15,North,-999,-999.0,-999.0,81,0.00,,,0.00,meteohub,2013-08-07 04:35:00,
2013-08-07 00:40:00,68.9,62.8,30.15,North,-999,-999.0,-999.0,81,0.00,,,0.00,meteohub,2013-08-07 04:40:00,
2013-08-07 00:45:00,68.9,63.1,30.14,North,-999,-999.0,-999.0,82,0.00,,,0.00,meteohub,2013-08-07 04:45:00,
2013-08-07 00:50:00,68.9,63.1,30.14,North,-999,-999.0,-999.0,82,0.00,,,0.00,meteohub,2013-08-07 04:50:00,
2013-08-07 00:56:00,68.9,63.1,30.14,North,-999,-999.0,-999.0,82,0.00,,,0.00,meteohub,2013-08-07 04:56:00,
2013-08-07 01:01:00,69.1,63.3,30.14,North,-999,-999.0,-999.0,82,0.00,,,0.00,meteohub,2013-08-07 05:01:00,
2013-08-07 01:06:00,68.9,63.1,30.14,North,-999,-999.0,-999.0,82,0.00,,,0.00,meteohub,2013-08-07 05:06:00,
2013-08-07 01:11:00,68.9,63.1,30.14,North,-999,-999.0,-999.0,82,0.00,,,0.00,meteohub,2013-08-07 05:11:00,
2013-08-07 01:16:00,68.9,63.1,30.14,North,-999,-999.0,-999.0,82,0.00,,,0.00,meteohub,2013-08-07 05:16:00,
2013-08-07 01:21:00,68.7,63.0,30.14,North,-999,-999.0,-999.0,82,0.00,,,0.00,meteohub,2013-08-07 05:21:00,
2013-08-07 01:26:00,68.5,62.8,30.15,North,-999,-999.0,-999.0,82,0.00,,,0.00,meteohub,2013-08-07 05:26:00,
2013-08-07 01:31:00,68.5,62.8,30.15,North,-999,-999.0,-999.0,82,0.00,,,0.00,meteohub,2013-08-07 05:31:00,
2013-08-07 01:36:00,68.7,63.0,30.15,North,-999,-999.0,-999.0,82,0.00,,,0.00,meteohub,2013-08-07 05:36:00,
2013-08-07 01:41:00,68.7,63.0,30.15,North,-999,-999.0,-999.0,82,0.00,,,0.00,meteohub,2013-08-07 05:41:00,
2013-08-07 01:46:00,68.7,63.0,30.15,North,-999,-999.0,-999.0,82,0.00,,,0.00,meteohub,2013-08-07 05:46:00,
2013-08-07 01:52:00,68.7,63.0,30.15,North,-999,-999.0,-999.0,82,0.00,,,0.00,meteohub,2013-08-07 05:52:00,
2013-08-07 01:57:00,68.5,62.8,30.15,North,-999,-999.0,-999.0,82,0.00,,,0.00,meteohub,2013-08-07 05:57:00,
2013-08-07 02:02:00,68.5,62.8,30.15,North,-999,-999.0,-999.0,82,0.00,,,0.00,meteohub,2013-08-07 06:02:00,
2013-08-07 02:07:00,68.5,62.8,30.15,North,-999,-999.0,-999.0,82,0.00,,,0.00,meteohub,2013-08-07 06:07:00,
2013-08-07 02:12:00,68.5,62.8,30.15,North,-999,-999.0,-999.0,82,0.00,,,0.00,meteohub,2013-08-07 06:12:00,
2013-08-07 02:17:00,68.5,62.8,30.15,North,-999,-999.0,-999.0,82,0.00,,,0.00,meteohub,2013-08-07 06:17:00,
2013-08-07 02:22:00,68.5,62.8,30.15,North,-999,-999.0,-999.0,82,0.00,,,0.00,meteohub,2013-08-07 06:22:00,
2013-08-07 02:27:00,68.7,63.0,30.16,North,-999,-999.0,-999.0,82,0.00,,,0.00,meteohub,2013-08-07 06:27:00,
2013-08-07 02:32:00,68.7,63.0,30.16,North,-999,-999.0,-999.0,82,0.00,,,0.00,meteohub,2013-08-07 06:32:00,
2013-08-07 02:37:00,68.5,62.8,30.16,North,-999,-999.0,-999.0,82,0.00,,,0.00,meteohub,2013-08-07 06:37:00,
2013-08-07 02:42:00,68.5,62.8,30.16,North,-999,-999.0,-999.0,82,0.00,,,0.00,meteohub,2013-08-07 06:42:00,
2013-08-07 02:47:00,68.4,62.6,30.15,North,-999,-999.0,-999.0,82,0.00,,,0.00,meteohub,2013-08-07 06:47:00,
2013-08-07 02:52:00,68.4,62.6,30.15,North,-999,-999.0,-999.0,82,0.00,,,0.00,meteohub,2013-08-07 06:52:00,
2013-08-07 02:57:00,68.5,62.8,30.15,North,-999,-999.0,-999.0,82,0.00,,,0.00,meteohub,2013-08-07 06:57:00,
2013-08-07 03:02:00,68.4,62.6,30.15,North,-999,-999.0,-999.0,82,0.00,,,0.00,meteohub,2013-08-07 07:02:00,
2013-08-07 03:07:00,68.2,62.4,30.16,North,-999,-999.0,-999.0,82,0.00,,,0.00,meteohub,2013-08-07 07:07:00,
2013-08-07 03:12:00,68.2,62.4,30.16,North,-999,-999.0,-999.0,82,0.00,,,0.00,meteohub,2013-08-07 07:12:00,
2013-08-07 03:17:00,68.2,62.4,30.16,North,-999,-999.0,-999.0,82,0.00,,,0.00,meteohub,2013-08-07 07:17:00,
2013-08-07 03:22:00,68.2,62.4,30.16,North,-999,-999.0,-999.0,82,0.00,,,0.00,meteohub,2013-08-07 07:22:00,
2013-08-07 03:27:00,68.2,62.4,30.16,North,-999,-999.0,-999.0,82,0.00,,,0.00,meteohub,2013-08-07 07:27:00,
2013-08-07 03:32:00,68.2,62.4,30.16,North,-999,-999.0,-999.0,82,0.00,,,0.00,meteohub,2013-08-07 07:32:00,
2013-08-07 03:37:00,68.2,62.8,30.16,North,-999,-999.0,-999.0,83,0.00,,,0.00,meteohub,2013-08-07 07:37:00,
2013-08-07 03:42:00,68.2,62.8,30.16,North,-999,-999.0,-999.0,83,0.00,,,0.00,meteohub,2013-08-07 07:42:00,
2013-08-07 03:47:00,68.2,62.8,30.17,North,-999,-999.0,-999.0,83,0.00,,,0.00,meteohub,2013-08-07 07:47:00,
2013-08-07 03:52:00,68.2,62.8,30.17,North,-999,-999.0,-999.0,83,0.00,,,0.00,meteohub,2013-08-07 07:52:00,
2013-08-07 03:57:00,68.0,62.6,30.17,North,-999,-999.0,-999.0,83,0.00,,,0.00,meteohub,2013-08-07 07:57:00,
2013-08-07 04:02:00,68.0,63.0,30.17,North,-999,-999.0,-999.0,84,0.00,,,0.00,meteohub,2013-08-07 08:02:00,
2013-08-07 04:07:00,68.2,63.1,30.17,North,-999,-999.0,-999.0,84,0.00,,,0.00,meteohub,2013-08-07 08:07:00,
2013-08-07 04:12:00,68.2,63.1,30.17,North,-999,-999.0,-999.0,84,0.00,,,0.00,meteohub,2013-08-07 08:12:00,
2013-08-07 04:17:00,68.2,62.8,30.17,North,-999,-999.0,-999.0,83,0.00,,,0.00,meteohub,2013-08-07 08:17:00,
2013-08-07 04:22:00,68.2,62.8,30.17,North,-999,-999.0,-999.0,83,0.00,,,0.00,meteohub,2013-08-07 08:22:00,
2013-08-07 04:27:00,68.0,63.0,30.17,North,-999,-999.0,-999.0,84,0.00,,,0.00,meteohub,2013-08-07 08:27:00,
2013-08-07 04:32:00,68.0,63.0,30.17,North,-999,-999.0,-999.0,84,0.00,,,0.00,meteohub,2013-08-07 08:32:00,
2013-08-07 04:37:00,68.0,63.0,30.17,North,-999,-999.0,-999.0,84,0.00,,,0.00,meteohub,2013-08-07 08:37:00,
2013-08-07 04:42:00,68.0,62.6,30.17,North,-999,-999.0,-999.0,83,0.00,,,0.00,meteohub,2013-08-07 08:42:00,
2013-08-07 04:47:00,68.2,63.1,30.17,North,-999,-999.0,-999.0,84,0.00,,,0.00,meteohub,2013-08-07 08:47:00,
2013-08-07 04:52:00,68.0,62.6,30.17,North,-999,-999.0,-999.0,83,0.00,,,0.00,meteohub,2013-08-07 08:52:00,
2013-08-07 04:57:00,68.0,62.6,30.17,North,-999,-999.0,-999.0,83,0.00,,,0.00,meteohub,2013-08-07 08:57:00,
2013-08-07 05:02:00,67.6,62.2,30.17,North,-999,-999.0,-999.0,83,0.00,,,0.00,meteohub,2013-08-07 09:02:00,
2013-08-07 05:07:00,67.8,62.4,30.17,North,-999,-999.0,-999.0,83,0.00,,,0.00,meteohub,2013-08-07 09:07:00,
2013-08-07 05:12:00,67.8,62.4,30.17,North,-999,-999.0,-999.0,83,0.00,,,0.00,meteohub,2013-08-07 09:12:00,
2013-08-07 05:17:00,67.6,62.2,30.17,North,-999,-999.0,-999.0,83,0.00,,,0.00,meteohub,2013-08-07 09:17:00,
2013-08-07 05:22:00,67.5,62.1,30.17,North,-999,-999.0,-999.0,83,0.00,,,0.00,meteohub,2013-08-07 09:22:00,
2013-08-07 05:27:00,67.3,61.9,30.17,North,-999,-999.0,-999.0,83,0.00,,,0.00,meteohub,2013-08-07 09:27:00,
2013-08-07 05:32:00,67.3,61.9,30.17,North,-999,-999.0,-999.0,83,0.00,,,0.00,meteohub,2013-08-07 09:32:00,
2013-08-07 05:37:00,67.1,61.7,30.17,North,-999,-999.0,-999.0,83,0.00,,,0.00,meteohub,2013-08-07 09:37:00,
2013-08-07 05:42:00,67.3,61.9,30.17,North,-999,-999.0,-999.0,83,0.00,,,0.00,meteohub,2013-08-07 09:42:00,
2013-08-07 05:47:00,67.1,61.7,30.16,North,-999,-999.0,-999.0,83,0.00,,,0.00,meteohub,2013-08-07 09:47:00,
2013-08-07 05:52:00,67.3,61.9,30.16,North,-999,-999.0,-999.0,83,0.00,,,0.00,meteohub,2013-08-07 09:52:00,
2013-08-07 05:57:00,67.1,61.7,30.16,North,-999,-999.0,-999.0,83,0.00,,,0.00,meteohub,2013-08-07 09:57:00,
2013-08-07 06:02:00,67.3,61.9,30.16,North,-999,-999.0,-999.0,83,0.00,,,0.00,meteohub,2013-08-07 10:02:00,
2013-08-07 06:07:00,67.3,61.9,30.17,North,-999,-999.0,-999.0,83,0.00,,,0.00,meteohub,2013-08-07 10:07:00,
2013-08-07 06:13:00,67.3,61.9,30.17,North,-999,-999.0,-999.0,83,0.00,,,0.00,meteohub,2013-08-07 10:13:00,
2013-08-07 06:18:00,67.5,62.1,30.17,North,-999,-999.0,-999.0,83,0.00,,,0.00,meteohub,2013-08-07 10:18:00,
2013-08-07 06:23:00,67.6,62.2,30.16,North,-999,-999.0,-999.0,83,0.00,,,0.00,meteohub,2013-08-07 10:23:00,
2013-08-07 06:28:00,67.8,62.4,30.16,North,-999,-999.0,-999.0,83,0.00,,,0.00,meteohub,2013-08-07 10:28:00,
2013-08-07 06:33:00,67.8,62.4,30.16,North,-999,-999.0,-999.0,83,0.00,,,0.00,meteohub,2013-08-07 10:33:00,
2013-08-07 06:38:00,67.8,62.4,30.16,North,-999,-999.0,-999.0,83,0.00,,,0.00,meteohub,2013-08-07 10:38:00,
2013-08-07 06:43:00,68.0,62.6,30.17,North,-999,-999.0,-999.0,83,0.00,,,0.00,meteohub,2013-08-07 10:43:00,
2013-08-07 06:48:00,68.2,62.8,30.17,North,-999,-999.0,-999.0,83,0.00,,,0.00,meteohub,2013-08-07 10:48:00,
2013-08-07 06:54:00,68.2,62.8,30.17,North,-999,-999.0,-999.0,83,0.00,,,0.00,meteohub,2013-08-07 10:54:00,
2013-08-07 06:59:00,68.4,63.0,30.17,North,-999,-999.0,-999.0,83,0.00,,,0.00,meteohub,2013-08-07 10:59:00,
2013-08-07 07:04:00,68.2,62.8,30.18,North,-999,-999.0,-999.0,83,0.00,,,0.00,meteohub,2013-08-07 11:04:00,
2013-08-07 07:09:00,68.5,63.1,30.18,North,-999,-999.0,-999.0,83,0.00,,,0.00,meteohub,2013-08-07 11:09:00,
2013-08-07 07:14:00,68.5,63.1,30.18,North,-999,-999.0,-999.0,83,0.00,,,0.00,meteohub,2013-08-07 11:14:00,
2013-08-07 07:19:00,68.9,63.5,30.18,North,-999,-999.0,-999.0,83,0.00,,,0.00,meteohub,2013-08-07 11:19:00,
2013-08-07 07:24:00,69.1,63.7,30.18,North,-999,-999.0,-999.0,83,0.00,,,0.00,meteohub,2013-08-07 11:24:00,
2013-08-07 07:29:00,69.1,63.7,30.18,North,-999,-999.0,-999.0,83,0.00,,,0.00,meteohub,2013-08-07 11:29:00,
2013-08-07 07:34:00,69.3,63.9,30.18,North,-999,-999.0,-999.0,83,0.00,,,0.00,meteohub,2013-08-07 11:34:00,
2013-08-07 07:39:00,69.6,64.2,30.18,North,-999,-999.0,-999.0,83,0.00,,,0.00,meteohub,2013-08-07 11:39:00,
2013-08-07 07:44:00,69.8,64.4,30.19,North,-999,-999.0,-999.0,83,0.00,,,0.00,meteohub,2013-08-07 11:44:00,
2013-08-07 07:50:00,70.0,64.6,30.19,North,-999,-999.0,-999.0,83,0.00,,,0.00,meteohub,2013-08-07 11:50:00,
2013-08-07 07:55:00,69.8,64.4,30.19,North,-999,-999.0,-999.0,83,0.00,,,0.00,meteohub,2013-08-07 11:55:00,
2013-08-07 08:00:00,70.0,64.6,30.19,North,-999,-999.0,-999.0,83,0.00,,,0.00,meteohub,2013-08-07 12:00:00,
2013-08-07 08:05:00,70.0,64.6,30.19,North,-999,-999.0,-999.0,83,0.00,,,0.00,meteohub,2013-08-07 12:05:00,
2013-08-07 08:10:00,70.0,64.6,30.19,North,-999,-999.0,-999.0,83,0.00,,,0.00,meteohub,2013-08-07 12:10:00,
2013-08-07 08:15:00,70.2,64.8,30.19,North,-999,-999.0,-999.0,83,0.00,,,0.00,meteohub,2013-08-07 12:15:00,
2013-08-07 08:20:00,70.3,64.9,30.19,North,-999,-999.0,-999.0,83,0.00,,,0.00,meteohub,2013-08-07 12:20:00,
2013-08-07 08:25:00,70.7,65.3,30.19,North,-999,-999.0,-999.0,83,0.00,,,0.00,meteohub,2013-08-07 12:25:00,
2013-08-07 08:30:00,70.9,65.5,30.19,North,-999,-999.0,-999.0,83,0.00,,,0.00,meteohub,2013-08-07 12:30:00,
2013-08-07 08:36:00,71.1,65.7,30.19,North,-999,-999.0,-999.0,83,0.00,,,0.00,meteohub,2013-08-07 12:36:00,
2013-08-07 08:41:00,71.1,65.7,30.19,North,-999,-999.0,-999.0,83,0.00,,,0.00,meteohub,2013-08-07 12:41:00,
2013-08-07 08:46:00,71.2,65.8,30.19,North,-999,-999.0,-999.0,83,0.00,,,0.00,meteohub,2013-08-07 12:46:00,
2013-08-07 08:51:00,71.2,65.5,30.19,North,-999,-999.0,-999.0,82,0.00,,,0.00,meteohub,2013-08-07 12:51:00,
2013-08-07 08:56:00,71.4,65.7,30.19,North,-999,-999.0,-999.0,82,0.00,,,0.00,meteohub,2013-08-07 12:56:00,
2013-08-07 09:01:00,71.4,65.7,30.19,North,-999,-999.0,-999.0,82,0.00,,,0.00,meteohub,2013-08-07 13:01:00,
2013-08-07 09:06:00,71.6,65.8,30.18,North,-999,-999.0,-999.0,82,0.00,,,0.00,meteohub,2013-08-07 13:06:00,
2013-08-07 09:11:00,71.8,65.7,30.18,North,-999,-999.0,-999.0,81,0.00,,,0.00,meteohub,2013-08-07 13:11:00,
2013-08-07 09:16:00,71.8,65.7,30.18,North,-999,-999.0,-999.0,81,0.00,,,0.00,meteohub,2013-08-07 13:16:00,
2013-08-07 09:21:00,72.1,65.7,30.18,North,-999,-999.0,-999.0,80,0.00,,,0.00,meteohub,2013-08-07 13:21:00,
2013-08-07 09:27:00,72.1,65.7,30.18,North,-999,-999.0,-999.0,80,0.00,,,0.00,meteohub,2013-08-07 13:27:00,
2013-08-07 09:32:00,72.3,65.8,30.18,North,-999,-999.0,-999.0,80,0.00,,,0.00,meteohub,2013-08-07 13:32:00,
2013-08-07 09:37:00,72.5,66.0,30.18,North,-999,-999.0,-999.0,80,0.00,,,0.00,meteohub,2013-08-07 13:37:00,
2013-08-07 09:42:00,72.9,66.0,30.18,North,-999,-999.0,-999.0,79,0.00,,,0.00,meteohub,2013-08-07 13:42:00,
2013-08-07 09:47:00,73.0,66.2,30.18,North,-999,-999.0,-999.0,79,0.00,,,0.00,meteohub,2013-08-07 13:47:00,
2013-08-07 09:52:00,73.2,66.0,30.18,North,-999,-999.0,-999.0,78,0.00,,,0.00,meteohub,2013-08-07 13:52:00,
2013-08-07 09:57:00,73.2,66.0,30.18,North,-999,-999.0,-999.0,78,0.00,,,0.00,meteohub,2013-08-07 13:57:00,
2013-08-07 10:02:00,73.2,66.0,30.18,North,-999,-999.0,-999.0,78,0.00,,,0.00,meteohub,2013-08-07 14:02:00,
2013-08-07 10:07:00,73.2,66.0,30.19,North,-999,-999.0,-999.0,78,0.00,,,0.00,meteohub,2013-08-07 14:07:00,
2013-08-07 10:12:00,73.0,65.8,30.19,North,-999,-999.0,-999.0,78,0.00,,,0.00,meteohub,2013-08-07 14:12:00,
2013-08-07 10:17:00,73.4,66.2,30.19,North,-999,-999.0,-999.0,78,0.00,,,0.00,meteohub,2013-08-07 14:17:00,
2013-08-07 10:23:00,73.4,65.7,30.17,North,-999,-999.0,-999.0,77,0.00,,,0.00,meteohub,2013-08-07 14:23:00,
2013-08-07 10:28:00,73.4,65.3,30.17,North,-999,-999.0,-999.0,76,0.00,,,0.00,meteohub,2013-08-07 14:28:00,
2013-08-07 10:33:00,73.4,65.3,30.17,North,-999,-999.0,-999.0,76,0.00,,,0.00,meteohub,2013-08-07 14:33:00,
2013-08-07 10:38:00,73.6,65.5,30.17,North,-999,-999.0,-999.0,76,0.00,,,0.00,meteohub,2013-08-07 14:38:00,
2013-08-07 10:43:00,73.8,65.3,30.18,North,-999,-999.0,-999.0,75,0.00,,,0.00,meteohub,2013-08-07 14:43:00,
2013-08-07 10:48:00,73.8,65.3,30.18,North,-999,-999.0,-999.0,75,0.00,,,0.00,meteohub,2013-08-07 14:48:00,
2013-08-07 10:53:00,74.3,65.8,30.18,North,-999,-999.0,-999.0,75,0.00,,,0.00,meteohub,2013-08-07 14:53:00,
2013-08-07 10:58:00,74.3,65.5,30.18,North,-999,-999.0,-999.0,74,0.00,,,0.00,meteohub,2013-08-07 14:58:00,
2013-08-07 11:03:00,74.5,65.7,30.18,North,-999,-999.0,-999.0,74,0.00,,,0.00,meteohub,2013-08-07 15:03:00,
2013-08-07 11:08:00,74.8,66.0,30.18,North,-999,-999.0,-999.0,74,0.00,,,0.00,meteohub,2013-08-07 15:08:00,
2013-08-07 11:14:00,75.0,66.2,30.18,North,-999,-999.0,-999.0,74,0.00,,,0.00,meteohub,2013-08-07 15:14:00,
2013-08-07 11:19:00,75.4,66.2,30.18,North,-999,-999.0,-999.0,73,0.00,,,0.00,meteohub,2013-08-07 15:19:00,
2013-08-07 11:24:00,75.0,65.8,30.19,North,-999,-999.0,-999.0,73,0.00,,,0.00,meteohub,2013-08-07 15:24:00,
2013-08-07 11:29:00,75.0,65.8,30.19,North,-999,-999.0,-999.0,73,0.00,,,0.00,meteohub,2013-08-07 15:29:00,
2013-08-07 11:34:00,75.4,66.2,30.19,North,-999,-999.0,-999.0,73,0.00,,,0.00,meteohub,2013-08-07 15:34:00,
2013-08-07 11:39:00,75.4,65.7,30.19,North,-999,-999.0,-999.0,72,0.00,,,0.00,meteohub,2013-08-07 15:39:00,
2013-08-07 11:44:00,75.4,65.3,30.18,North,-999,-999.0,-999.0,71,0.00,,,0.00,meteohub,2013-08-07 15:44:00,
2013-08-07 11:49:00,75.2,65.1,30.18,North,-999,-999.0,-999.0,71,0.00,,,0.00,meteohub,2013-08-07 15:49:00,
2013-08-07 11:54:00,75.4,65.7,30.18,North,-999,-999.0,-999.0,72,0.00,,,0.00,meteohub,2013-08-07 15:54:00,
2013-08-07 11:59:00,75.4,65.3,30.18,North,-999,-999.0,-999.0,71,0.00,,,0.00,meteohub,2013-08-07 15:59:00,
2013-08-07 12:05:00,75.4,64.9,30.19,North,-999,-999.0,-999.0,70,0.00,,,0.00,meteohub,2013-08-07 16:05:00,
2013-08-07 12:10:00,75.4,64.9,30.19,North,-999,-999.0,-999.0,70,0.00,,,0.00,meteohub,2013-08-07 16:10:00,
2013-08-07 12:15:00,75.4,64.9,30.19,North,-999,-999.0,-999.0,70,0.00,,,0.00,meteohub,2013-08-07 16:15:00,
2013-08-07 12:20:00,75.6,64.8,30.19,North,-999,-999.0,-999.0,69,0.00,,,0.00,meteohub,2013-08-07 16:20:00,
2013-08-07 12:25:00,76.1,65.1,30.19,North,-999,-999.0,-999.0,69,0.00,,,0.00,meteohub,2013-08-07 16:25:00,
2013-08-07 12:30:00,76.1,65.1,30.19,North,-999,-999.0,-999.0,69,0.00,,,0.00,meteohub,2013-08-07 16:30:00,
2013-08-07 12:35:00,76.5,65.5,30.19,North,-999,-999.0,-999.0,69,0.00,,,0.00,meteohub,2013-08-07 16:35:00,
2013-08-07 12:40:00,76.5,65.1,30.19,North,-999,-999.0,-999.0,68,0.00,,,0.00,meteohub,2013-08-07 16:40:00,
2013-08-07 12:47:00,76.6,64.9,30.19,North,-999,-999.0,-999.0,67,0.00,,,0.00,meteohub,2013-08-07 16:47:00,
2013-08-07 12:52:00,76.8,65.5,30.19,North,-999,-999.0,-999.0,68,0.00,,,0.00,meteohub,2013-08-07 16:52:00,
2013-08-07 12:57:00,77.0,65.1,30.19,North,-999,-999.0,-999.0,67,0.00,,,0.00,meteohub,2013-08-07 16:57:00,
2013-08-07 13:02:00,77.4,65.5,30.19,North,-999,-999.0,-999.0,67,0.00,,,0.00,meteohub,2013-08-07 17:02:00,
2013-08-07 13:07:00,77.4,65.1,30.19,North,-999,-999.0,-999.0,66,0.00,,,0.00,meteohub,2013-08-07 17:07:00,
2013-08-07 13:12:00,77.4,65.1,30.19,North,-999,-999.0,-999.0,66,0.00,,,0.00,meteohub,2013-08-07 17:12:00,
2013-08-07 13:17:00,77.7,65.5,30.19,North,-999,-999.0,-999.0,66,0.00,,,0.00,meteohub,2013-08-07 17:17:00,
2013-08-07 13:22:00,77.7,65.5,30.19,North,-999,-999.0,-999.0,66,0.00,,,0.00,meteohub,2013-08-07 17:22:00,
2013-08-07 13:27:00,78.1,65.3,30.19,North,-999,-999.0,-999.0,65,0.00,,,0.00,meteohub,2013-08-07 17:27:00,
2013-08-07 13:32:00,78.1,65.3,30.19,North,-999,-999.0,-999.0,65,0.00,,,0.00,meteohub,2013-08-07 17:32:00,
2013-08-07 13:37:00,78.3,65.5,30.19,North,-999,-999.0,-999.0,65,0.00,,,0.00,meteohub,2013-08-07 17:37:00,
2013-08-07 13:42:00,78.1,65.8,30.19,North,-999,-999.0,-999.0,66,0.00,,,0.00,meteohub,2013-08-07 17:42:00,
2013-08-07 13:47:00,78.4,66.2,30.19,North,-999,-999.0,-999.0,66,0.00,,,0.00,meteohub,2013-08-07 17:47:00,
2013-08-07 13:49:00,78.6,66.4,30.19,North,-999,-999.0,-999.0,66,0.00,,,0.00,meteohub,2013-08-07 17:49:00,
2013-08-07 13:52:00,78.6,66.4,30.19,North,-999,-999.0,-999.0,66,0.00,,,0.00,meteohub,2013-08-07 17:52:00,
2013-08-07 14:02:00,79.0,65.8,30.19,North,-999,-999.0,-999.0,64,0.00,,,0.00,meteohub,2013-08-07 18:02:00,
2013-08-07 14:07:00,79.0,66.2,30.19,North,-999,-999.0,-999.0,65,0.00,,,0.00,meteohub,2013-08-07 18:07:00,
2013-08-07 14:12:00,79.3,66.0,30.19,North,-999,-999.0,-999.0,64,0.00,,,0.00,meteohub,2013-08-07 18:12:00,
2013-08-07 14:17:00,79.3,65.7,30.19,North,-999,-999.0,-999.0,63,0.00,,,0.00,meteohub,2013-08-07 18:17:00,
2013-08-07 14:22:00,79.5,65.3,30.19,North,-999,-999.0,-999.0,62,0.00,,,0.00,meteohub,2013-08-07 18:22:00,
2013-08-07 14:23:00,79.7,65.1,30.19,North,-999,-999.0,-999.0,61,0.00,,,0.00,meteohub,2013-08-07 18:23:00,
2013-08-07 14:27:00,79.5,64.4,30.19,North,-999,-999.0,-999.0,60,0.00,,,0.00,meteohub,2013-08-07 18:27:00,
2013-08-07 14:32:00,79.7,64.0,30.19,North,-999,-999.0,-999.0,59,0.00,,,0.00,meteohub,2013-08-07 18:32:00,
2013-08-07 14:37:00,79.7,63.7,30.19,North,-999,-999.0,-999.0,58,0.00,,,0.00,meteohub,2013-08-07 18:37:00,
2013-08-07 14:42:00,79.7,63.7,30.19,North,-999,-999.0,-999.0,58,0.00,,,0.00,meteohub,2013-08-07 18:42:00,
2013-08-07 14:47:00,80.1,63.5,30.19,North,-999,-999.0,-999.0,57,0.00,,,0.00,meteohub,2013-08-07 18:47:00,
2013-08-07 14:52:00,80.1,63.5,30.19,North,-999,-999.0,-999.0,57,0.00,,,0.00,meteohub,2013-08-07 18:52:00,
2013-08-07 14:57:00,80.2,63.7,30.19,North,-999,-999.0,-999.0,57,0.00,,,0.00,meteohub,2013-08-07 18:57:00,
2013-08-07 15:02:00,80.4,63.9,30.19,North,-999,-999.0,-999.0,57,0.00,,,0.00,meteohub,2013-08-07 19:02:00,
2013-08-07 15:07:00,80.4,63.9,30.18,North,-999,-999.0,-999.0,57,0.00,,,0.00,meteohub,2013-08-07 19:07:00,
2013-08-07 15:12:00,80.4,63.9,30.18,North,-999,-999.0,-999.0,57,0.00,,,0.00,meteohub,2013-08-07 19:12:00,
2013-08-07 15:17:00,80.6,64.0,30.18,North,-999,-999.0,-999.0,57,0.00,,,0.00,meteohub,2013-08-07 19:17:00,
2013-08-07 15:22:00,80.8,63.7,30.18,North,-999,-999.0,-999.0,56,0.00,,,0.00,meteohub,2013-08-07 19:22:00,
2013-08-07 15:27:00,80.8,64.0,30.17,North,-999,-999.0,-999.0,57,0.00,,,0.00,meteohub,2013-08-07 19:27:00,
2013-08-07 15:32:00,80.6,64.0,30.17,North,-999,-999.0,-999.0,57,0.00,,,0.00,meteohub,2013-08-07 19:32:00,
2013-08-07 15:37:00,80.8,64.6,30.17,North,-999,-999.0,-999.0,58,0.00,,,0.00,meteohub,2013-08-07 19:37:00,
2013-08-07 15:42:00,80.8,64.6,30.17,North,-999,-999.0,-999.0,58,0.00,,,0.00,meteohub,2013-08-07 19:42:00,
2013-08-07 15:47:00,81.0,64.8,30.17,North,-999,-999.0,-999.0,58,0.00,,,0.00,meteohub,2013-08-07 19:47:00,
2013-08-07 15:52:00,81.1,64.9,30.17,North,-999,-999.0,-999.0,58,0.00,,,0.00,meteohub,2013-08-07 19:52:00,
2013-08-07 15:57:00,81.3,65.7,30.17,North,-999,-999.0,-999.0,59,0.00,,,0.00,meteohub,2013-08-07 19:57:00,
2013-08-07 16:02:00,81.7,66.0,30.17,North,-999,-999.0,-999.0,59,0.00,,,0.00,meteohub,2013-08-07 20:02:00,
2013-08-07 16:07:00,81.9,66.2,30.16,North,-999,-999.0,-999.0,59,0.00,,,0.00,meteohub,2013-08-07 20:07:00,
2013-08-07 16:12:00,81.9,66.2,30.16,North,-999,-999.0,-999.0,59,0.00,,,0.00,meteohub,2013-08-07 20:12:00,
2013-08-07 16:17:00,81.9,66.2,30.16,North,-999,-999.0,-999.0,59,0.00,,,0.00,meteohub,2013-08-07 20:17:00,
2013-08-07 16:22:00,81.9,66.2,30.16,North,-999,-999.0,-999.0,59,0.00,,,0.00,meteohub,2013-08-07 20:22:00,
2013-08-07 16:27:00,82.0,66.4,30.16,North,-999,-999.0,-999.0,59,0.00,,,0.00,meteohub,2013-08-07 20:27:00,
2013-08-07 16:32:00,82.2,66.4,30.16,North,-999,-999.0,-999.0,59,0.00,,,0.00,meteohub,2013-08-07 20:32:00,
2013-08-07 16:37:00,82.4,66.6,30.16,North,-999,-999.0,-999.0,59,0.00,,,0.00,meteohub,2013-08-07 20:37:00,
2013-08-07 16:42:00,82.4,66.2,30.16,North,-999,-999.0,-999.0,58,0.00,,,0.00,meteohub,2013-08-07 20:42:00,
2013-08-07 16:47:00,82.4,66.6,30.16,North,-999,-999.0,-999.0,59,0.00,,,0.00,meteohub,2013-08-07 20:47:00,
2013-08-07 16:52:00,82.6,66.7,30.16,North,-999,-999.0,-999.0,59,0.00,,,0.00,meteohub,2013-08-07 20:52:00,
2013-08-07 16:57:00,81.9,66.2,30.16,North,-999,-999.0,-999.0,59,0.00,,,0.00,meteohub,2013-08-07 20:57:00,
2013-08-07 17:02:00,80.8,65.1,30.16,North,-999,-999.0,-999.0,59,0.00,,,0.00,meteohub,2013-08-07 21:02:00,
2013-08-07 17:07:00,80.2,65.5,30.15,North,-999,-999.0,-999.0,61,0.00,,,0.00,meteohub,2013-08-07 21:07:00,
2013-08-07 17:12:00,80.8,66.6,30.15,North,-999,-999.0,-999.0,62,0.00,,,0.00,meteohub,2013-08-07 21:12:00,
2013-08-07 17:17:00,81.1,66.9,30.15,North,-999,-999.0,-999.0,62,0.00,,,0.00,meteohub,2013-08-07 21:17:00,
2013-08-07 17:22:00,81.5,67.3,30.15,North,-999,-999.0,-999.0,62,0.00,,,0.00,meteohub,2013-08-07 21:22:00,
2013-08-07 17:27:00,80.8,66.6,30.16,North,-999,-999.0,-999.0,62,0.00,,,0.00,meteohub,2013-08-07 21:27:00,
2013-08-07 17:32:00,80.6,66.4,30.16,North,-999,-999.0,-999.0,62,0.00,,,0.00,meteohub,2013-08-07 21:32:00,
2013-08-07 17:37:00,80.8,66.9,30.16,North,-999,-999.0,-999.0,63,0.00,,,0.00,meteohub,2013-08-07 21:37:00,
2013-08-07 17:42:00,81.0,67.1,30.16,North,-999,-999.0,-999.0,63,0.00,,,0.00,meteohub,2013-08-07 21:42:00,
2013-08-07 17:48:00,81.1,66.9,30.15,North,-999,-999.0,-999.0,62,0.00,,,0.00,meteohub,2013-08-07 21:48:00,
2013-08-07 17:53:00,80.8,66.6,30.15,North,-999,-999.0,-999.0,62,0.00,,,0.00,meteohub,2013-08-07 21:53:00,
2013-08-07 17:58:00,80.6,65.8,30.15,North,-999,-999.0,-999.0,61,0.00,,,0.00,meteohub,2013-08-07 21:58:00,
2013-08-07 18:03:00,79.9,65.7,30.14,North,-999,-999.0,-999.0,62,0.00,,,0.00,meteohub,2013-08-07 22:03:00,
2013-08-07 18:09:00,79.3,65.7,30.14,North,-999,-999.0,-999.0,63,0.00,,,0.00,meteohub,2013-08-07 22:09:00,
2013-08-07 18:14:00,78.1,64.9,30.14,North,-999,-999.0,-999.0,64,0.00,,,0.00,meteohub,2013-08-07 22:14:00,
2013-08-07 18:19:00,78.1,64.9,30.14,North,-999,-999.0,-999.0,64,0.00,,,0.00,meteohub,2013-08-07 22:19:00,
2013-08-07 18:24:00,78.3,65.5,30.14,North,-999,-999.0,-999.0,65,0.00,,,0.00,meteohub,2013-08-07 22:24:00,
2013-08-07 18:30:00,78.6,65.8,30.14,North,-999,-999.0,-999.0,65,0.00,,,0.00,meteohub,2013-08-07 22:30:00,
2013-08-07 18:35:00,78.3,65.5,30.14,North,-999,-999.0,-999.0,65,0.00,,,0.00,meteohub,2013-08-07 22:35:00,
2013-08-07 18:40:00,78.1,65.3,30.14,North,-999,-999.0,-999.0,65,0.00,,,0.00,meteohub,2013-08-07 22:40:00,
2013-08-07 18:45:00,76.6,64.4,30.14,North,-999,-999.0,-999.0,66,0.00,,,0.00,meteohub,2013-08-07 22:45:00,
2013-08-07 18:50:00,76.6,64.9,30.14,North,-999,-999.0,-999.0,67,0.00,,,0.00,meteohub,2013-08-07 22:50:00,
2013-08-07 18:55:00,76.8,64.9,30.14,North,-999,-999.0,-999.0,67,0.00,,,0.00,meteohub,2013-08-07 22:55:00,
2013-08-07 19:01:00,76.8,64.9,30.14,North,-999,-999.0,-999.0,67,0.00,,,0.00,meteohub,2013-08-07 23:01:00,
2013-08-07 19:06:00,76.8,64.9,30.14,North,-999,-999.0,-999.0,67,0.00,,,0.00,meteohub,2013-08-07 23:06:00,
2013-08-07 19:11:00,76.1,64.4,30.14,North,-999,-999.0,-999.0,67,0.00,,,0.00,meteohub,2013-08-07 23:11:00,
2013-08-07 19:16:00,75.9,64.2,30.14,North,-999,-999.0,-999.0,67,0.00,,,0.00,meteohub,2013-08-07 23:16:00,
2013-08-07 19:21:00,75.4,64.0,30.14,North,-999,-999.0,-999.0,68,0.00,,,0.00,meteohub,2013-08-07 23:21:00,
2013-08-07 19:26:00,74.8,63.5,30.13,North,-999,-999.0,-999.0,68,0.00,,,0.00,meteohub,2013-08-07 23:26:00,
2013-08-07 19:32:00,74.5,63.7,30.13,North,-999,-999.0,-999.0,69,0.00,,,0.00,meteohub,2013-08-07 23:32:00,
2013-08-07 19:37:00,73.8,63.0,30.13,North,-999,-999.0,-999.0,69,0.00,,,0.00,meteohub,2013-08-07 23:37:00,
2013-08-07 19:42:00,73.6,63.1,30.13,North,-999,-999.0,-999.0,70,0.00,,,0.00,meteohub,2013-08-07 23:42:00,
2013-08-07 19:47:00,72.9,63.0,30.13,North,-999,-999.0,-999.0,71,0.00,,,0.00,meteohub,2013-08-07 23:47:00,
2013-08-07 19:52:00,72.9,63.0,30.13,North,-999,-999.0,-999.0,71,0.00,,,0.00,meteohub,2013-08-07 23:52:00,
2013-08-07 19:57:00,72.7,62.8,30.13,North,-999,-999.0,-999.0,71,0.00,,,0.00,meteohub,2013-08-07 23:57:00,
2013-08-07 20:02:00,72.5,63.0,30.13,North,-999,-999.0,-999.0,72,0.00,,,0.00,meteohub,2013-08-08 00:02:00,
2013-08-07 20:07:00,72.1,62.6,30.13,North,-999,-999.0,-999.0,72,0.00,,,0.00,meteohub,2013-08-08 00:07:00,
2013-08-07 20:12:00,71.8,62.6,30.13,North,-999,-999.0,-999.0,73,0.00,,,0.00,meteohub,2013-08-08 00:12:00,
2013-08-07 20:17:00,71.6,62.4,30.13,North,-999,-999.0,-999.0,73,0.00,,,0.00,meteohub,2013-08-08 00:17:00,
2013-08-07 20:22:00,71.4,62.8,30.13,North,-999,-999.0,-999.0,74,0.00,,,0.00,meteohub,2013-08-08 00:22:00,
2013-08-07 20:27:00,70.9,62.6,30.13,North,-999,-999.0,-999.0,75,0.00,,,0.00,meteohub,2013-08-08 00:27:00,
2013-08-07 20:32:00,70.9,63.0,30.13,North,-999,-999.0,-999.0,76,0.00,,,0.00,meteohub,2013-08-08 00:32:00,
2013-08-07 20:37:00,70.7,62.8,30.13,North,-999,-999.0,-999.0,76,0.00,,,0.00,meteohub,2013-08-08 00:37:00,
2013-08-07 20:42:00,70.5,62.6,30.13,North,-999,-999.0,-999.0,76,0.00,,,0.00,meteohub,2013-08-08 00:42:00,
2013-08-07 20:47:00,70.7,63.1,30.13,North,-999,-999.0,-999.0,77,0.00,,,0.00,meteohub,2013-08-08 00:47:00,
2013-08-07 20:52:00,70.5,63.0,30.13,North,-999,-999.0,-999.0,77,0.00,,,0.00,meteohub,2013-08-08 00:52:00,
2013-08-07 20:57:00,70.7,63.1,30.13,North,-999,-999.0,-999.0,77,0.00,,,0.00,meteohub,2013-08-08 00:57:00,
2013-08-07 21:02:00,70.7,63.5,30.13,North,-999,-999.0,-999.0,78,0.00,,,0.00,meteohub,2013-08-08 01:02:00,
2013-08-07 21:07:00,70.7,63.5,30.13,North,-999,-999.0,-999.0,78,0.00,,,0.00,meteohub,2013-08-08 01:07:00,
2013-08-07 21:12:00,70.3,63.1,30.13,North,-999,-999.0,-999.0,78,0.00,,,0.00,meteohub,2013-08-08 01:12:00,
2013-08-07 21:17:00,70.2,63.3,30.13,North,-999,-999.0,-999.0,79,0.00,,,0.00,meteohub,2013-08-08 01:17:00,
2013-08-07 21:22:00,70.2,63.3,30.13,North,-999,-999.0,-999.0,79,0.00,,,0.00,meteohub,2013-08-08 01:22:00,
2013-08-07 21:27:00,70.0,63.5,30.13,North,-999,-999.0,-999.0,80,0.00,,,0.00,meteohub,2013-08-08 01:27:00,
2013-08-07 21:32:00,69.8,63.3,30.13,North,-999,-999.0,-999.0,80,0.00,,,0.00,meteohub,2013-08-08 01:32:00,
2013-08-07 21:37:00,70.0,63.5,30.13,North,-999,-999.0,-999.0,80,0.00,,,0.00,meteohub,2013-08-08 01:37:00,
2013-08-07 21:42:00,70.0,63.9,30.13,North,-999,-999.0,-999.0,81,0.00,,,0.00,meteohub,2013-08-08 01:42:00,
2013-08-07 21:47:00,70.0,63.9,30.13,North,-999,-999.0,-999.0,81,0.00,,,0.00,meteohub,2013-08-08 01:47:00,
2013-08-07 21:52:00,70.0,63.9,30.13,North,-999,-999.0,-999.0,81,0.00,,,0.00,meteohub,2013-08-08 01:52:00,
2013-08-07 21:57:00,70.2,64.0,30.13,North,-999,-999.0,-999.0,81,0.00,,,0.00,meteohub,2013-08-08 01:57:00,
2013-08-07 22:02:00,70.2,64.0,30.13,North,-999,-999.0,-999.0,81,0.00,,,0.00,meteohub,2013-08-08 02:02:00,
2013-08-07 22:07:00,70.3,64.2,30.13,North,-999,-999.0,-999.0,81,0.00,,,0.00,meteohub,2013-08-08 02:07:00,
2013-08-07 22:12:00,70.3,64.2,30.13,North,-999,-999.0,-999.0,81,0.00,,,0.00,meteohub,2013-08-08 02:12:00,
2013-08-07 22:17:00,70.3,64.2,30.13,North,-999,-999.0,-999.0,81,0.00,,,0.00,meteohub,2013-08-08 02:17:00,
2013-08-07 22:22:00,70.3,64.2,30.13,North,-999,-999.0,-999.0,81,0.00,,,0.00,meteohub,2013-08-08 02:22:00,
2013-08-07 22:27:00,70.3,64.2,30.13,North,-999,-999.0,-999.0,81,0.00,,,0.00,meteohub,2013-08-08 02:27:00,
2013-08-07 22:33:00,70.5,64.4,30.13,North,-999,-999.0,-999.0,81,0.00,,,0.00,meteohub,2013-08-08 02:33:00,
2013-08-07 22:38:00,70.3,64.2,30.13,North,-999,-999.0,-999.0,81,0.00,,,0.00,meteohub,2013-08-08 02:38:00,
2013-08-07 22:43:00,70.5,64.4,30.13,North,-999,-999.0,-999.0,81,0.00,,,0.00,meteohub,2013-08-08 02:43:00,
2013-08-07 22:48:00,70.5,64.4,30.13,North,-999,-999.0,-999.0,81,0.00,,,0.00,meteohub,2013-08-08 02:48:00,
2013-08-07 22:53:00,70.5,64.8,30.13,North,-999,-999.0,-999.0,82,0.00,,,0.00,meteohub,2013-08-08 02:53:00,
2013-08-07 22:59:00,70.3,64.6,30.13,North,-999,-999.0,-999.0,82,0.00,,,0.00,meteohub,2013-08-08 02:59:00,
2013-08-07 23:04:00,70.5,64.8,30.13,North,-999,-999.0,-999.0,82,0.00,,,0.00,meteohub,2013-08-08 03:04:00,
2013-08-07 23:09:00,70.5,64.8,30.13,North,-999,-999.0,-999.0,82,0.00,,,0.00,meteohub,2013-08-08 03:09:00,
2013-08-07 23:14:00,70.5,64.8,30.13,North,-999,-999.0,-999.0,82,0.00,,,0.00,meteohub,2013-08-08 03:14:00,
2013-08-07 23:20:00,70.5,64.8,30.13,North,-999,-999.0,-999.0,82,0.00,,,0.00,meteohub,2013-08-08 03:20:00,
2013-08-07 23:25:00,70.5,64.8,30.14,North,-999,-999.0,-999.0,82,0.00,,,0.00,meteohub,2013-08-08 03:25:00,
2013-08-07 23:30:00,70.5,64.8,30.14,North,-999,-999.0,-999.0,82,0.00,,,0.00,meteohub,2013-08-08 03:30:00,
2013-08-07 23:35:00,70.7,64.9,30.14,North,-999,-999.0,-999.0,82,0.00,,,0.00,meteohub,2013-08-08 03:35:00,
2013-08-07 23:40:00,70.7,64.9,30.14,North,-999,-999.0,-999.0,82,0.00,,,0.00,meteohub,2013-08-08 03:40:00,
2013-08-07 23:45:00,70.7,64.9,30.13,North,-999,-999.0,-999.0,82,0.00,,,0.00,meteohub,2013-08-08 03:45:00,
2013-08-07 23:51:00,70.7,64.9,30.13,North,-999,-999.0,-999.0,82,0.00,,,0.00,meteohub,2013-08-08 03:51:00,
2013-08-07 23:56:00,70.7,64.9,30.13,North,-999,-999.0,-999.0,82,0.00,,,0.00,meteohub,2013-08-08 03:56:00,